Time;durP1;ratioP1;P1;durP2;ratioP2;P2;SDS_P1;SDS_P2;PMS_P1;PMS_P2;Temp;Humidity;BMP_temperature;BMP_pressure;BME280_temperature;BME280_humidity;BME280_pressure;Samples;Min_cycle;Max_cycle;Signal;HPM_P1;HPM_P2
2023/04/26 00:01:56;;;;;;;15.13;6.00;;;7.20;99.90;;;;;;5135199;27;20046;-68
2023/04/26 00:04:23;;;;;;;14.93;6.30;;;7.20;99.90;;;;;;5135525;27;20023;-68
2023/04/26 00:06:48;;;;;;;10.73;5.80;;;7.20;99.90;;;;;;5135751;27;20019;-68
2023/04/26 00:09:14;;;;;;;13.68;6.38;;;7.20;99.90;;;;;;5135874;27;20460;-69
2023/04/26 00:11:40;;;;;;;13.02;5.15;;;7.10;99.90;;;;;;5130155;27;20491;-69
2023/04/26 00:14:06;;;;;;;9.45;5.35;;;7.00;99.90;;;;;;5125349;27;20022;-68
2023/04/26 00:16:31;;;;;;;13.65;6.15;;;7.00;99.90;;;;;;5134933;27;20034;-68
2023/04/26 00:18:57;;;;;;;9.13;5.45;;;7.00;99.90;;;;;;5135307;27;20026;-69
2023/04/26 00:21:24;;;;;;;11.50;5.80;;;7.00;99.90;;;;;;5135283;27;21349;-68
2023/04/26 00:23:51;;;;;;;14.02;6.45;;;7.00;99.90;;;;;;5132504;27;20026;-68
2023/04/26 00:26:16;;;;;;;13.48;6.00;;;6.90;99.90;;;;;;5135209;27;20471;-68
2023/04/26 00:28:42;;;;;;;14.40;5.95;;;6.90;99.90;;;;;;5134226;27;20043;-69
2023/04/26 00:31:16;;;;;;;9.57;5.30;;;6.90;99.90;;;;;;5134762;27;20356;-69
2023/04/26 00:33:42;;;;;;;11.90;5.47;;;6.90;99.90;;;;;;5134375;27;20019;-68
2023/04/26 00:36:09;;;;;;;11.98;5.70;;;6.80;99.90;;;;;;5135446;27;20460;-69
2023/04/26 00:38:35;;;;;;;12.70;5.53;;;6.80;99.90;;;;;;5135428;27;20057;-68
2023/04/26 00:41:01;;;;;;;12.55;5.90;;;6.80;99.90;;;;;;5133117;27;20024;-69
2023/04/26 00:43:27;;;;;;;11.75;5.70;;;6.80;99.90;;;;;;5134695;27;20042;-68
2023/04/26 00:45:52;;;;;;;10.98;5.80;;;6.80;99.90;;;;;;5134723;27;20061;-69
2023/04/26 00:48:19;;;;;;;13.65;6.10;;;6.80;99.90;;;;;;5135159;27;20053;-69
2023/04/26 00:50:46;;;;;;;15.23;6.25;;;6.80;99.90;;;;;;5134927;27;20360;-68
2023/04/26 00:53:13;;;;;;;12.32;6.45;;;6.80;99.90;;;;;;5132528;27;20027;-69
2023/04/26 00:55:40;;;;;;;11.45;7.13;;;6.80;99.90;;;;;;5133371;27;20023;-68
2023/04/26 00:58:06;;;;;;;17.30;7.07;;;6.70;99.90;;;;;;5134715;27;20035;-68
2023/04/26 01:00:32;;;;;;;11.40;5.90;;;6.70;99.90;;;;;;5134529;27;20526;-69
2023/04/26 01:02:58;;;;;;;11.55;6.70;;;6.60;99.90;;;;;;5134541;27;20096;-68
2023/04/26 01:05:24;;;;;;;11.73;5.85;;;6.60;99.90;;;;;;5134259;27;20023;-69
2023/04/26 01:07:51;;;;;;;11.40;6.25;;;6.60;99.90;;;;;;5135121;27;20428;-68
2023/04/26 01:10:17;;;;;;;13.23;5.93;;;6.60;99.90;;;;;;5135138;27;20061;-68
2023/04/26 01:12:43;;;;;;;12.75;6.20;;;6.60;99.90;;;;;;5135158;27;20035;-68
2023/04/26 01:15:10;;;;;;;10.68;6.13;;;6.50;99.90;;;;;;5134689;27;20026;-68
2023/04/26 01:17:36;;;;;;;14.07;6.82;;;6.50;99.90;;;;;;5131090;27;20019;-69
2023/04/26 01:20:08;;;;;;;12.80;7.20;;;6.50;99.90;;;;;;5134918;27;20102;-69
2023/04/26 01:22:35;;;;;;;11.90;6.07;;;6.50;99.90;;;;;;5134341;27;20023;-68
2023/04/26 01:25:04;;;;;;;8.77;6.00;;;6.50;99.90;;;;;;5133877;27;20455;-69
2023/04/26 01:27:30;;;;;;;15.85;6.97;;;6.50;99.90;;;;;;5134942;27;20035;-68
2023/04/26 01:29:55;;;;;;;12.95;6.15;;;6.40;99.90;;;;;;5133395;27;20019;-68
2023/04/26 01:32:21;;;;;;;14.85;6.15;;;6.40;99.90;;;;;;5133488;27;20106;-68
2023/04/26 01:34:47;;;;;;;12.20;6.47;;;6.30;99.90;;;;;;5134482;27;20026;-68
2023/04/26 01:37:13;;;;;;;12.45;6.50;;;6.30;99.90;;;;;;5133205;27;20066;-69
2023/04/26 01:39:38;;;;;;;14.82;6.35;;;6.30;99.90;;;;;;5134039;27;20060;-68
2023/04/26 01:42:04;;;;;;;11.45;6.70;;;6.20;99.90;;;;;;5132518;27;20030;-68
2023/04/26 01:44:30;;;;;;;15.70;6.75;;;6.20;99.90;;;;;;5132851;27;20479;-68
2023/04/26 01:46:56;;;;;;;10.43;6.50;;;6.20;99.90;;;;;;5133011;27;20081;-68
2023/04/26 01:49:22;;;;;;;14.60;7.10;;;6.20;99.90;;;;;;5133338;27;20023;-69
2023/04/26 01:51:48;;;;;;;14.10;6.40;;;6.20;99.90;;;;;;5134493;27;20506;-68
2023/04/26 01:54:13;;;;;;;12.77;6.32;;;6.10;99.90;;;;;;5133904;27;20027;-68
2023/04/26 01:56:39;;;;;;;12.45;6.95;;;6.10;99.90;;;;;;5133832;27;20027;-68
2023/04/26 01:59:05;;;;;;;11.40;6.78;;;6.10;99.90;;;;;;5133037;27;20007;-68
2023/04/26 02:01:31;;;;;;;13.50;6.18;;;6.10;99.90;;;;;;5134251;27;20390;-68
2023/04/26 02:03:57;;;;;;;17.30;6.82;;;6.00;99.90;;;;;;5133683;27;20085;-68
2023/04/26 02:06:22;;;;;;;13.13;6.90;;;6.00;99.90;;;;;;5134136;27;20027;-68
2023/04/26 02:08:48;;;;;;;13.52;6.95;;;6.00;99.90;;;;;;5133602;27;20019;-69
2023/04/26 02:11:14;;;;;;;12.20;6.40;;;6.00;99.90;;;;;;5133777;27;20080;-68
2023/04/26 02:13:40;;;;;;;12.65;6.70;;;6.00;99.90;;;;;;5132456;27;20456;-68
2023/04/26 02:16:06;;;;;;;12.00;6.75;;;5.90;99.90;;;;;;5132932;27;20031;-68
2023/04/26 02:18:33;;;;;;;11.27;6.47;;;5.90;99.90;;;;;;5134265;27;20031;-68
2023/04/26 02:20:59;;;;;;;12.88;7.30;;;5.90;99.90;;;;;;5134030;27;20053;-68
2023/04/26 02:23:24;;;;;;;13.90;7.13;;;5.90;99.90;;;;;;5134133;27;20027;-68
2023/04/26 02:25:50;;;;;;;15.20;6.80;;;5.90;99.90;;;;;;5133284;27;20031;-69
2023/04/26 02:28:16;;;;;;;15.85;6.47;;;5.90;99.90;;;;;;5133735;27;20027;-68
2023/04/26 02:30:43;;;;;;;13.10;6.63;;;5.80;99.90;;;;;;5133686;27;20023;-68
2023/04/26 02:33:09;;;;;;;11.85;6.63;;;5.80;99.90;;;;;;5133780;27;20132;-68
2023/04/26 02:35:36;;;;;;;11.98;7.03;;;5.80;99.90;;;;;;5132985;27;20491;-68
2023/04/26 02:38:02;;;;;;;13.70;7.80;;;5.70;99.90;;;;;;5133609;27;20038;-68
2023/04/26 02:40:29;;;;;;;13.93;6.88;;;5.70;99.90;;;;;;5132943;27;20080;-69
2023/04/26 02:42:54;;;;;;;9.88;5.95;;;5.70;99.90;;;;;;5132318;27;20076;-68
2023/04/26 02:45:20;;;;;;;9.95;6.25;;;5.60;99.90;;;;;;5133197;27;20034;-68
2023/04/26 02:47:46;;;;;;;12.05;6.85;;;5.70;99.90;;;;;;5133474;27;20019;-68
2023/04/26 02:50:11;;;;;;;13.20;7.85;;;5.60;99.90;;;;;;5133632;27;20052;-68
2023/04/26 02:52:37;;;;;;;12.88;7.07;;;5.60;99.90;;;;;;5132249;27;20379;-68
2023/04/26 02:55:04;;;;;;;14.98;7.00;;;5.60;99.90;;;;;;5133569;27;20023;-68
2023/04/26 02:57:33;;;;;;;16.63;7.25;;;5.50;99.90;;;;;;5133419;27;20110;-69
2023/04/26 02:59:58;;;;;;;12.25;7.25;;;5.50;99.90;;;;;;5133516;27;20031;-68
2023/04/26 03:02:24;;;;;;;13.48;5.97;;;5.50;99.90;;;;;;5132914;27;20075;-69
2023/04/26 03:04:50;;;;;;;16.08;7.30;;;5.50;99.90;;;;;;5132476;27;20171;-68
2023/04/26 03:07:16;;;;;;;10.43;5.72;;;5.50;99.90;;;;;;5132281;27;20467;-68
2023/04/26 03:09:42;;;;;;;11.30;6.50;;;5.50;99.90;;;;;;5133598;27;20042;-68
2023/04/26 03:12:08;;;;;;;11.73;6.45;;;5.50;99.90;;;;;;5133113;27;20483;-68
2023/04/26 03:14:34;;;;;;;15.15;7.28;;;5.40;99.90;;;;;;5133618;27;20092;-68
2023/04/26 03:17:00;;;;;;;14.48;7.15;;;5.40;99.90;;;;;;5137052;27;20027;-69
2023/04/26 03:19:29;;;;;;;11.77;6.55;;;5.40;99.90;;;;;;5136877;27;20084;-69
2023/04/26 03:21:55;;;;;;;11.75;6.32;;;5.40;99.90;;;;;;5136348;27;20531;-68
2023/04/26 03:24:21;;;;;;;15.98;7.07;;;5.30;99.90;;;;;;5136308;27;20027;-68
2023/04/26 03:26:47;;;;;;;11.50;6.53;;;5.30;99.90;;;;;;5137044;27;20498;-69
2023/04/26 03:29:13;;;;;;;14.65;6.97;;;5.40;99.90;;;;;;5136761;27;20016;-69
2023/04/26 03:31:38;;;;;;;11.10;6.50;;;5.40;99.90;;;;;;5137117;27;20433;-68
2023/04/26 03:34:05;;;;;;;13.23;7.00;;;5.30;99.90;;;;;;5136449;27;20051;-68
2023/04/26 03:36:31;;;;;;;14.93;7.25;;;5.30;99.90;;;;;;5136271;27;20019;-68
2023/04/26 03:38:56;;;;;;;13.02;6.55;;;5.30;99.90;;;;;;5137354;27;20386;-69
2023/04/26 03:41:22;;;;;;;11.98;6.38;;;5.10;99.90;;;;;;5136917;27;20023;-69
2023/04/26 03:43:48;;;;;;;12.18;6.43;;;5.10;99.90;;;;;;5136704;27;20027;-68
2023/04/26 03:46:14;;;;;;;13.15;6.82;;;5.10;99.90;;;;;;5136747;27;20054;-68
2023/04/26 03:48:40;;;;;;;15.20;7.22;;;5.00;99.90;;;;;;5135736;27;20023;-68
2023/04/26 03:51:06;;;;;;;14.98;6.82;;;5.00;99.90;;;;;;5136042;27;20030;-68
2023/04/26 03:53:32;;;;;;;9.00;6.43;;;5.00;99.90;;;;;;5136149;27;20027;-68
2023/04/26 03:55:58;;;;;;;14.40;7.50;;;5.00;99.90;;;;;;5135016;27;20039;-68
2023/04/26 03:58:27;;;;;;;14.18;7.22;;;5.00;99.90;;;;;;5136707;27;20449;-69
2023/04/26 04:00:57;;;;;;;11.38;6.95;;;5.00;99.90;;;;;;5136112;27;20023;-68
2023/04/26 04:03:22;;;;;;;12.20;7.28;;;5.00;99.90;;;;;;5136803;27;20019;-68
2023/04/26 04:05:48;;;;;;;12.93;6.90;;;5.00;99.90;;;;;;5135691;27;20016;-68
2023/04/26 04:08:14;;;;;;;13.40;6.68;;;5.00;99.90;;;;;;5136312;27;20033;-68
2023/04/26 04:10:41;;;;;;;17.10;8.23;;;5.00;99.90;;;;;;5136212;27;20387;-68
2023/04/26 04:13:07;;;;;;;16.88;7.78;;;5.00;99.90;;;;;;5136100;27;20023;-68
2023/04/26 04:15:33;;;;;;;15.55;8.10;;;5.00;99.90;;;;;;5136070;27;20035;-69
2023/04/26 04:17:58;;;;;;;15.60;6.88;;;5.00;99.90;;;;;;5134548;27;20027;-68
2023/04/26 04:20:24;;;;;;;11.10;6.80;;;4.90;99.90;;;;;;5136622;27;20375;-68
2023/04/26 04:22:50;;;;;;;13.38;6.50;;;4.90;99.90;;;;;;5135260;27;20024;-68
2023/04/26 04:25:16;;;;;;;14.35;7.55;;;4.90;99.90;;;;;;5135748;27;20023;-69
2023/04/26 04:27:42;;;;;;;14.80;7.15;;;4.90;99.90;;;;;;5135542;27;20084;-68
2023/04/26 04:30:08;;;;;;;14.88;7.15;;;4.90;99.90;;;;;;5136143;27;20029;-68
2023/04/26 04:32:38;;;;;;;14.90;8.00;;;4.90;99.90;;;;;;5135473;27;20100;-68
2023/04/26 04:35:04;;;;;;;12.80;7.93;;;4.90;99.90;;;;;;5135119;27;20020;-69
2023/04/26 04:37:33;;;;;;;15.55;8.00;;;4.90;99.90;;;;;;5134634;27;20387;-68
2023/04/26 04:39:59;;;;;;;13.27;7.80;;;5.00;99.90;;;;;;5135612;27;20436;-68
2023/04/26 04:42:27;;;;;;;15.65;8.13;;;5.00;99.90;;;;;;5134428;27;20037;-68
2023/04/26 04:44:53;;;;;;;18.67;8.30;;;5.00;99.90;;;;;;5133470;27;20016;-68
2023/04/26 04:47:19;;;;;;;16.65;8.35;;;5.00;99.90;;;;;;5135843;27;20067;-68
2023/04/26 04:49:44;;;;;;;14.15;7.15;;;5.00;99.90;;;;;;5135055;27;20065;-68
2023/04/26 04:52:10;;;;;;;15.90;7.60;;;4.90;99.90;;;;;;5135260;27;20023;-68
2023/04/26 04:54:36;;;;;;;21.42;8.13;;;4.90;99.90;;;;;;5135831;27;20026;-68
2023/04/26 04:57:02;;;;;;;13.60;7.90;;;5.00;99.90;;;;;;5134947;27;20027;-67
2023/04/26 04:59:28;;;;;;;15.73;7.68;;;5.00;99.90;;;;;;5135062;27;20027;-68
2023/04/26 05:01:54;;;;;;;15.52;8.85;;;5.00;99.90;;;;;;5133677;27;20379;-68
2023/04/26 05:04:20;;;;;;;25.98;15.45;;;5.10;99.90;;;;;;5135460;27;20026;-68
2023/04/26 05:06:46;;;;;;;19.02;9.48;;;5.10;99.90;;;;;;5133006;27;20023;-68
2023/04/26 05:09:12;;;;;;;14.50;8.90;;;5.00;99.90;;;;;;5135213;27;20026;-68
2023/04/26 05:11:37;;;;;;;17.30;9.07;;;5.10;99.90;;;;;;5135328;27;20067;-69
2023/04/26 05:14:03;;;;;;;14.27;7.72;;;5.10;99.90;;;;;;5134683;27;20110;-68
2023/04/26 05:16:29;;;;;;;14.98;8.40;;;5.20;99.90;;;;;;5134555;27;20097;-68
2023/04/26 05:18:54;;;;;;;22.35;9.70;;;5.20;99.90;;;;;;5134899;27;20035;-68
2023/04/26 05:21:21;;;;;;;19.10;9.13;;;5.20;99.90;;;;;;5135270;27;20030;-68
2023/04/26 05:23:47;;;;;;;16.98;9.77;;;5.20;99.90;;;;;;5134748;27;20031;-68
2023/04/26 05:26:15;;;;;;;16.23;10.10;;;5.30;99.90;;;;;;5134928;27;20108;-68
2023/04/26 05:28:41;;;;;;;18.20;10.15;;;5.30;99.90;;;;;;5134626;27;20102;-68
2023/04/26 05:31:08;;;;;;;15.18;10.07;;;5.30;99.90;;;;;;5134332;27;20067;-68
2023/04/26 05:33:34;;;;;;;19.13;9.57;;;5.40;99.90;;;;;;5134786;27;20031;-68
2023/04/26 05:36:01;;;;;;;16.30;8.95;;;5.50;99.90;;;;;;5134300;27;20066;-68
2023/04/26 05:38:28;;;;;;;19.52;10.43;;;5.50;99.90;;;;;;5134040;27;20057;-68
2023/04/26 05:40:54;;;;;;;14.95;9.40;;;5.40;99.90;;;;;;5133941;27;20019;-69
2023/04/26 05:43:20;;;;;;;18.83;9.02;;;5.50;99.90;;;;;;5134561;27;20447;-69
2023/04/26 05:45:52;;;;;;;18.90;9.10;;;5.50;99.90;;;;;;5133325;27;20495;-69
2023/04/26 05:48:19;;;;;;;17.02;9.02;;;5.70;99.90;;;;;;5133952;27;20845;-69
2023/04/26 05:50:45;;;;;;;17.10;9.45;;;5.70;99.90;;;;;;5145833;27;20027;-69
2023/04/26 05:53:10;;;;;;;19.20;11.13;;;5.60;99.90;;;;;;5152348;27;20093;-68
2023/04/26 05:55:36;;;;;;;19.42;10.73;;;5.70;99.90;;;;;;5147224;27;20023;-69
2023/04/26 05:58:02;;;;;;;20.67;10.98;;;5.70;99.90;;;;;;5134397;27;20490;-68
2023/04/26 06:00:27;;;;;;;24.15;12.52;;;5.80;99.90;;;;;;5133850;27;20023;-70
2023/04/26 06:02:53;;;;;;;21.50;13.43;;;5.80;99.90;;;;;;5133648;27;20515;-69
2023/04/26 06:05:19;;;;;;;26.75;14.35;;;5.90;99.90;;;;;;5133115;27;20031;-69
2023/04/26 06:07:45;;;;;;;28.35;13.85;;;6.00;99.90;;;;;;5133088;27;20023;-69
2023/04/26 06:10:12;;;;;;;25.08;14.13;;;6.00;99.90;;;;;;5133251;27;20031;-69
2023/04/26 06:12:38;;;;;;;27.77;15.35;;;6.10;99.90;;;;;;5132709;27;20547;-69
2023/04/26 06:15:04;;;;;;;28.75;14.55;;;6.30;99.90;;;;;;5133822;27;20156;-70
2023/04/26 06:17:30;;;;;;;29.75;16.15;;;6.30;99.90;;;;;;5133199;27;20120;-69
2023/04/26 06:19:55;;;;;;;40.53;18.08;;;6.40;99.90;;;;;;5132975;27;20061;-69
2023/04/26 06:22:21;;;;;;;35.47;20.02;;;6.50;99.90;;;;;;5132527;27;20029;-69
2023/04/26 06:24:47;;;;;;;42.05;18.38;;;6.50;99.90;;;;;;5132824;27;20480;-70
2023/04/26 06:27:16;;;;;;;31.38;18.00;;;6.60;99.90;;;;;;5133636;27;20027;-69
2023/04/26 06:30:07;;;;;;;39.22;18.38;;;6.70;99.90;;;;;;5132112;27;20029;-68
2023/04/26 06:32:33;;;;;;;37.47;17.77;;;6.70;99.90;;;;;;5120525;27;20025;-68
2023/04/26 06:34:59;;;;;;;35.47;18.95;;;6.80;99.90;;;;;;5132268;27;20060;-68
2023/04/26 06:37:25;;;;;;;38.90;19.42;;;6.90;99.90;;;;;;5133027;27;20386;-68
2023/04/26 06:39:50;;;;;;;35.15;18.10;;;7.00;99.90;;;;;;5132724;27;20034;-69
2023/04/26 06:42:16;;;;;;;32.13;18.50;;;7.00;99.90;;;;;;5132636;27;20448;-68
2023/04/26 06:44:42;;;;;;;29.80;17.98;;;7.10;99.90;;;;;;5132241;27;20059;-69
2023/04/26 06:47:08;;;;;;;31.23;17.80;;;7.10;99.90;;;;;;5132809;27;20019;-68
2023/04/26 06:49:34;;;;;;;35.05;19.17;;;7.20;99.90;;;;;;5131814;27;20049;-69
2023/04/26 06:52:00;;;;;;;36.67;18.88;;;7.20;99.90;;;;;;5132328;27;20068;-69
2023/04/26 06:54:30;;;;;;;38.65;17.75;;;7.30;99.90;;;;;;5131171;27;20027;-71
2023/04/26 06:57:23;;;;;;;38.00;18.73;;;7.20;99.90;;;;;;5131291;27;20053;-71
2023/04/26 06:59:48;;;;;;;;;;;7.20;99.90;;;;;;5127133;27;20031;-71
2023/04/26 07:02:14;;;;;;;32.80;16.38;;;7.30;99.90;;;;;;5129396;28;19907;-70
2023/04/26 07:04:40;;;;;;;35.22;16.38;;;7.50;99.90;;;;;;5132239;27;20027;-70
2023/04/26 07:07:05;;;;;;;35.88;16.35;;;7.60;99.90;;;;;;5131714;28;20468;-70
2023/04/26 07:09:31;;;;;;;35.28;17.30;;;7.70;99.90;;;;;;5130911;28;20421;-70
2023/04/26 07:11:57;;;;;;;29.23;16.27;;;7.80;99.90;;;;;;5100834;27;20098;-70
2023/04/26 07:14:23;;;;;;;32.63;17.45;;;7.80;99.90;;;;;;5120404;28;20111;-70
2023/04/26 07:16:49;;;;;;;31.73;16.63;;;7.90;99.90;;;;;;5115051;27;20098;-70
2023/04/26 07:19:14;;;;;;;28.77;15.35;;;8.00;99.90;;;;;;5114645;28;20448;-70
2023/04/26 07:21:40;;;;;;;36.90;15.90;;;8.10;99.90;;;;;;5113657;27;20519;-70
2023/04/26 07:24:07;;;;;;;33.50;14.23;;;8.10;99.90;;;;;;5115953;27;20036;-70
2023/04/26 07:26:35;;;;;;;28.20;14.88;;;8.20;99.90;;;;;;5115590;27;20103;-70
2023/04/26 07:29:02;;;;;;;24.10;12.48;;;8.30;99.90;;;;;;5110935;27;20015;-71
2023/04/26 07:31:30;;;;;;;25.95;14.27;;;8.40;99.90;;;;;;5115486;28;20019;-70
2023/04/26 07:33:56;;;;;;;21.02;11.90;;;8.50;99.90;;;;;;5112328;28;20387;-70
2023/04/26 07:36:22;;;;;;;24.50;11.25;;;8.50;99.90;;;;;;5118334;28;20027;-70
2023/04/26 07:38:47;;;;;;;24.83;12.05;;;8.60;99.90;;;;;;5112477;28;20035;-70
2023/04/26 07:41:15;;;;;;;21.38;10.68;;;8.60;99.90;;;;;;5117197;27;20090;-70
2023/04/26 07:43:41;;;;;;;23.55;11.60;;;8.60;99.90;;;;;;5114510;27;20041;-70
2023/04/26 07:46:06;;;;;;;26.45;11.88;;;8.70;99.90;;;;;;5113400;27;20098;-70
2023/04/26 07:48:32;;;;;;;26.48;10.68;;;8.80;99.90;;;;;;5112725;28;20027;-70
2023/04/26 07:51:09;;;;;;;20.45;9.98;;;8.90;99.90;;;;;;5112148;28;20486;-71
2023/04/26 07:53:35;;;;;;;19.13;9.65;;;9.00;99.90;;;;;;5120813;28;20026;-71
2023/04/26 07:56:03;;;;;;;19.85;9.88;;;9.10;99.90;;;;;;5117727;28;20378;-71
2023/04/26 07:58:31;;;;;;;16.85;6.07;;;9.10;99.90;;;;;;5113853;28;20472;-70
2023/04/26 08:00:58;;;;;;;16.60;6.15;;;9.10;99.90;;;;;;5111144;28;20016;-71
2023/04/26 08:03:25;;;;;;;14.57;6.57;;;9.10;99.90;;;;;;5117626;27;20027;-71
2023/04/26 08:05:52;;;;;;;14.25;8.02;;;9.10;99.90;;;;;;5117179;27;20011;-70
2023/04/26 08:08:18;;;;;;;20.20;9.85;;;9.20;99.90;;;;;;5120870;27;20067;-70
2023/04/26 08:10:44;;;;;;;22.75;9.40;;;9.10;99.90;;;;;;5115371;27;20498;-70
2023/04/26 08:13:10;;;;;;;18.02;8.77;;;9.10;99.90;;;;;;5119518;27;20070;-71
2023/04/26 08:15:36;;;;;;;22.88;10.40;;;9.20;99.90;;;;;;5113855;27;20051;-71
2023/04/26 08:18:02;;;;;;;20.73;9.55;;;9.40;99.90;;;;;;5112622;27;20039;-71
2023/04/26 08:20:27;;;;;;;22.90;10.70;;;9.60;99.90;;;;;;5114111;27;23017;-71
2023/04/26 08:22:57;;;;;;;24.50;9.93;;;9.70;99.90;;;;;;5115382;27;20031;-71
2023/04/26 08:25:23;;;;;;;21.10;9.50;;;9.80;99.90;;;;;;5121391;27;20023;-71
2023/04/26 08:27:48;;;;;;;20.17;8.32;;;9.90;99.90;;;;;;5119369;27;20084;-71
2023/04/26 08:30:14;;;;;;;19.95;9.50;;;10.00;99.90;;;;;;5118928;27;20012;-71
2023/04/26 08:32:40;;;;;;;16.42;7.80;;;10.10;99.90;;;;;;5113710;27;20058;-71
2023/04/26 08:35:06;;;;;;;15.88;8.18;;;10.10;99.90;;;;;;5116493;27;20043;-70
2023/04/26 08:37:32;;;;;;;11.32;4.10;;;10.10;99.90;;;;;;5118433;27;20049;-70
2023/04/26 08:39:57;;;;;;;17.58;5.57;;;10.10;99.90;;;;;;5117314;27;20024;-71
2023/04/26 08:42:27;;;;;;;14.65;6.35;;;10.20;99.90;;;;;;5112533;27;20448;-71
2023/04/26 08:44:53;;;;;;;14.80;7.20;;;10.30;99.90;;;;;;5119602;27;20027;-71
2023/04/26 08:47:44;;;;;;;20.05;7.13;;;10.40;99.90;;;;;;5120211;27;20593;-71
2023/04/26 08:50:13;;;;;;;16.80;7.40;;;10.50;99.90;;;;;;5115292;27;20024;-71
2023/04/26 08:52:40;;;;;;;16.02;5.93;;;10.30;99.90;;;;;;5110101;27;20070;-71
2023/04/26 08:55:08;;;;;;;15.48;6.47;;;10.30;99.90;;;;;;5116220;27;20536;-71
2023/04/26 08:57:34;;;;;;;17.67;6.88;;;10.40;99.90;;;;;;5112018;27;20047;-71
2023/04/26 09:00:04;;;;;;;13.38;7.38;;;10.30;99.90;;;;;;5114595;27;20022;-71
2023/04/26 09:02:30;;;;;;;56.80;11.43;;;10.20;99.90;;;;;;5116100;27;20043;-71
2023/04/26 09:04:56;;;;;;;26.65;7.25;;;10.30;99.90;;;;;;5117421;27;20020;-71
2023/04/26 09:07:31;;;;;;;12.32;5.50;;;10.50;99.90;;;;;;5116029;27;20031;-71
2023/04/26 09:09:58;;;;;;;10.43;4.43;;;10.50;99.90;;;;;;5118357;27;20556;-71
2023/04/26 09:12:24;;;;;;;7.88;3.42;;;10.60;99.90;;;;;;5111699;27;20084;-72
2023/04/26 09:14:50;;;;;;;7.93;3.60;;;10.60;99.90;;;;;;5110359;27;20019;-71
2023/04/26 09:17:35;;;;;;;14.00;4.10;;;10.50;99.90;;;;;;5111168;27;20031;-71
2023/04/26 09:20:15;;;;;;;8.40;3.60;;;10.40;99.90;;;;;;5113170;27;20055;-71
2023/04/26 09:22:41;;;;;;;5.45;2.50;;;10.70;99.90;;;;;;5120635;27;20520;-71
2023/04/26 09:25:07;;;;;;;9.95;3.63;;;11.00;99.90;;;;;;5113754;27;20035;-71
2023/04/26 09:27:39;;;;;;;10.95;2.92;;;11.30;99.90;;;;;;5117683;27;20396;-71
2023/04/26 09:30:09;;;;;;;9.45;3.28;;;11.70;99.90;;;;;;5117410;27;20422;-71
2023/04/26 09:32:47;;;;;;;6.78;2.72;;;12.00;99.90;;;;;;5115656;27;20015;-71
2023/04/26 09:35:37;;;;;;;7.25;3.08;;;12.30;99.90;;;;;;5114599;27;20106;-71
2023/04/26 09:38:07;;;;;;;11.25;3.95;;;12.50;99.90;;;;;;5113000;27;20035;-71
2023/04/26 09:40:34;;;;;;;8.98;3.35;;;12.40;99.90;;;;;;5118024;27;20027;-71
2023/04/26 09:43:04;;;;;;;8.57;3.47;;;12.30;99.90;;;;;;5110258;27;20039;-71
2023/04/26 09:45:41;;;;;;;7.72;3.08;;;12.50;99.90;;;;;;5114881;27;20110;-71
2023/04/26 09:48:19;;;;;;;10.10;3.60;;;12.40;99.90;;;;;;5114083;27;20024;-71
2023/04/26 09:50:45;;;;;;;6.97;3.67;;;12.20;99.90;;;;;;5116536;27;20080;-72
2023/04/26 09:53:24;;;;;;;10.27;3.75;;;12.10;99.90;;;;;;5118422;27;20049;-72
2023/04/26 09:55:50;;;;;;;7.05;3.45;;;12.00;99.90;;;;;;5118913;27;20023;-72
2023/04/26 09:58:15;;;;;;;14.98;3.67;;;12.10;99.90;;;;;;5113381;27;20036;-72
2023/04/26 10:00:42;;;;;;;7.03;3.35;;;12.10;99.90;;;;;;5114113;27;20033;-71
2023/04/26 10:03:08;;;;;;;8.82;3.35;;;12.10;99.90;;;;;;5111535;27;20502;-72
2023/04/26 10:05:35;;;;;;;9.48;3.85;;;12.10;99.90;;;;;;5117311;27;20015;-71
2023/04/26 10:08:02;;;;;;;14.15;3.65;;;12.00;99.90;;;;;;5116783;27;20353;-71
2023/04/26 10:10:30;;;;;;;6.90;3.10;;;12.10;99.90;;;;;;5115292;27;20024;-73
2023/04/26 10:12:56;;;;;;;8.68;2.65;;;12.10;99.90;;;;;;5116202;27;20053;-72
2023/04/26 10:15:22;;;;;;;7.53;2.92;;;12.10;99.90;;;;;;5120600;27;21360;-72
2023/04/26 10:17:48;;;;;;;8.80;2.63;;;12.10;99.90;;;;;;5115960;27;20031;-73
2023/04/26 10:20:17;;;;;;;6.00;2.60;;;12.00;99.90;;;;;;5115471;27;20031;-72
2023/04/26 10:22:52;;;;;;;5.25;2.70;;;12.10;99.90;;;;;;5112849;27;20034;-73
2023/04/26 10:25:18;;;;;;;8.00;2.85;;;12.00;99.90;;;;;;5113144;27;20542;-73
2023/04/26 10:27:46;;;;;;;11.65;2.80;;;12.10;99.90;;;;;;5116916;27;20039;-71
2023/04/26 10:30:14;;;;;;;5.80;2.70;;;12.10;99.90;;;;;;5116468;27;20024;-72
2023/04/26 10:32:55;;;;;;;6.60;3.10;;;12.20;99.90;;;;;;5112333;27;20020;-72
2023/04/26 10:35:22;;;;;;;12.60;3.40;;;12.40;99.90;;;;;;5114060;27;20077;-72
2023/04/26 10:38:00;;;;;;;8.23;2.85;;;12.40;99.90;;;;;;5115623;27;20372;-72
2023/04/26 10:40:34;;;;;;;9.55;3.15;;;12.50;99.90;;;;;;5114254;27;20034;-72
2023/04/26 10:43:14;;;;;;;7.47;4.00;;;12.40;99.90;;;;;;5113474;27;20034;-72
2023/04/26 10:45:47;;;;;;;6.80;4.03;;;12.50;99.90;;;;;;5111920;27;20023;-73
2023/04/26 10:48:17;;;;;;;;;;;12.50;99.90;;;;;;5115721;27;20023;-72
2023/04/26 10:51:00;;;;;;;4.85;2.90;;;12.50;99.90;;;;;;5114581;27;20362;-73
2023/04/26 10:53:30;;;;;;;6.18;2.97;;;12.70;99.90;;;;;;5113583;27;20025;-73
2023/04/26 10:55:56;;;;;;;9.25;3.30;;;12.80;99.90;;;;;;5116859;27;20074;-71
2023/04/26 10:58:32;;;;;;;5.82;3.10;;;12.70;99.90;;;;;;5111638;27;20134;-70
2023/04/26 11:01:07;;;;;;;9.38;3.47;;;12.70;99.90;;;;;;5112189;27;20027;-69
2023/04/26 11:03:33;;;;;;;6.30;3.17;;;12.70;99.90;;;;;;5115166;28;20508;-70
2023/04/26 11:05:59;;;;;;;5.90;3.45;;;12.70;99.90;;;;;;5116086;28;20027;-72
2023/04/26 11:08:27;;;;;;;8.68;3.33;;;12.70;99.90;;;;;;5114691;28;20020;-71
2023/04/26 11:11:09;;;;;;;8.38;3.20;;;12.70;99.90;;;;;;5113675;27;20472;-70
2023/04/26 11:13:37;;;;;;;6.07;3.28;;;12.80;99.90;;;;;;5113688;28;20107;-70
2023/04/26 11:16:14;;;;;;;5.97;2.85;;;12.90;99.90;;;;;;5110990;27;20019;-70
2023/04/26 11:18:42;;;;;;;6.35;3.33;;;12.90;99.90;;;;;;5114628;27;20093;-71
2023/04/26 11:21:08;;;;;;;7.15;3.42;;;13.00;99.90;;;;;;5112241;28;20023;-71
2023/04/26 11:23:35;;;;;;;8.20;3.60;;;13.00;99.90;;;;;;5113582;27;20024;-71
2023/04/26 11:26:08;;;;;;;7.80;3.88;;;13.10;99.90;;;;;;5115323;28;20047;-71
2023/04/26 11:28:35;;;;;;;6.40;2.90;;;13.10;99.90;;;;;;5112994;28;20023;-71
2023/04/26 11:31:06;;;;;;;6.03;3.65;;;13.00;99.90;;;;;;5116708;28;20076;-69
2023/04/26 11:33:35;;;;;;;9.13;3.78;;;13.00;99.90;;;;;;5115490;28;20072;-70
2023/04/26 11:36:01;;;;;;;10.00;3.08;;;13.10;99.90;;;;;;5113931;28;20110;-70
2023/04/26 11:38:28;;;;;;;8.50;3.60;;;13.00;99.90;;;;;;5117000;27;20036;-71
2023/04/26 11:41:01;;;;;;;4.72;3.38;;;12.80;99.90;;;;;;5116317;27;20476;-70
2023/04/26 11:43:33;;;;;;;6.63;3.20;;;13.00;99.90;;;;;;5117920;27;20107;-70
2023/04/26 11:46:00;;;;;;;9.50;3.72;;;13.00;99.90;;;;;;5113996;27;20081;-70
2023/04/26 11:48:27;;;;;;;4.47;3.15;;;12.90;99.90;;;;;;5119149;27;20454;-72
2023/04/26 11:50:55;;;;;;;8.65;3.22;;;12.90;99.90;;;;;;5115745;27;20080;-71
2023/04/26 11:53:21;;;;;;;7.40;3.63;;;13.20;99.90;;;;;;5116367;27;20780;-71
2023/04/26 11:55:47;;;;;;;10.65;3.42;;;13.20;99.90;;;;;;5113230;27;20384;-70
2023/04/26 11:58:13;;;;;;;8.80;3.53;;;13.20;99.90;;;;;;5118176;27;20039;-71
2023/04/26 12:01:01;;;;;;;7.55;3.78;;;13.10;99.90;;;;;;5117106;27;20380;-71
2023/04/26 12:03:32;;;;;;;8.40;3.40;;;12.90;99.90;;;;;;5119088;27;20057;-72
2023/04/26 12:05:57;;;;;;;6.07;3.40;;;13.00;99.90;;;;;;5115451;27;20034;-72
2023/04/26 12:08:26;;;;;;;7.30;2.97;;;13.10;99.90;;;;;;5118043;27;20015;-73
2023/04/26 12:10:53;;;;;;;7.93;4.18;;;13.20;99.90;;;;;;5115813;27;20039;-72
2023/04/26 12:13:19;;;;;;;5.18;3.40;;;13.20;99.90;;;;;;5112741;27;20059;-72
2023/04/26 12:15:50;;;;;;;8.63;2.85;;;13.20;99.90;;;;;;5117439;27;20154;-72
2023/04/26 12:18:16;;;;;;;6.30;3.25;;;13.20;99.90;;;;;;5118296;27;20043;-71
2023/04/26 12:20:43;;;;;;;10.55;3.22;;;13.30;99.90;;;;;;5115157;27;20372;-72
2023/04/26 12:23:10;;;;;;;12.05;3.92;;;13.20;99.90;;;;;;5113760;27;20026;-72
2023/04/26 12:25:38;;;;;;;7.05;3.55;;;13.20;99.90;;;;;;5116192;27;20027;-72
2023/04/26 12:28:13;;;;;;;8.73;3.20;;;13.20;99.90;;;;;;5120744;27;20480;-72
2023/04/26 12:30:40;;;;;;;10.23;3.58;;;13.30;99.90;;;;;;5117091;27;20023;-72
2023/04/26 12:33:05;;;;;;;7.57;3.65;;;13.30;99.90;;;;;;5118776;27;20035;-72
2023/04/26 12:35:32;;;;;;;7.75;3.72;;;13.40;99.90;;;;;;5118695;27;20035;-72
2023/04/26 12:38:00;;;;;;;28.17;6.30;;;13.40;99.90;;;;;;5120639;27;20039;-73
2023/04/26 12:40:27;;;;;;;7.72;3.50;;;13.40;99.90;;;;;;5120463;27;20020;-72
2023/04/26 12:42:54;;;;;;;6.55;3.78;;;13.50;99.90;;;;;;5122305;27;20479;-72
2023/04/26 12:45:25;;;;;;;6.95;3.60;;;13.40;99.90;;;;;;5119462;27;20023;-73
2023/04/26 12:47:52;;;;;;;10.05;3.42;;;13.20;99.90;;;;;;5117439;27;20490;-73